Terminal Aerodrome Forecast
Issued by NWS Wilmington, NC

Home | Current Version | Previous Version | Text Only | Print | Product List | Glossary On
Versions: 1 2 3 4 5 6 7 8 9 10 11 12 13 14 15
000
FTUS42 KILM 261100
TAFILM
TAF
KILM 261121Z 2612/2712 23008KT P6SM SCT060 BKN100
     FM261800 26012G19KT P6SM SCT025 SCT100
     FM262100 28011G17KT P6SM VCSH BKN030 OVC100
     FM270600 30013G20KT P6SM BKN025 BKN050=

USA.gov is the U.S. government's official web portal to all federal, state and local government web resources and services.